Terminal Aerodrome Forecast
Issued by NWS North Platte, NE

Home | Current Version | Previous Version | Text Only | Print | Product List | Glossary Off
Versions: 1 2 3 4 5 6 7 8 9 10 11 12 13 14 15 16

905
FTUS43 KLBF 072330 AAA
TAFVTN
TAF AMD
KVTN 072330Z 0800/0824 31012G20KT P6SM SCT150 BKN250
      TEMPO 0800/0803 31020G30KT=

USA.gov is the U.S. government's official web portal to all federal, state and local government web resources and services.